Portada
METAR-TAF:

METAR-TAF

Aeropuertos :

Aeropuerto de León

León, España

latitud: 42-35N, longitud: 005-39W, altitud: 926 m

Observación

El informe se hizo hace 21 minutos, a las 23:30 UTC
Viento 12 kt del este, variando entre este-noreste y este-sureste
Temperatura 6°C
Humedad 87%
Presión 1009 hPa
Visibilidad 10 km o más
Cielo cubierto a una altura de 1500 ft

METAR: LELN 312330Z AUTO 09012KT 060V120 9999 OVC015 06/04 Q1009

Hora: 01:51 (23:51 UTC)

Pronóstico

El informe se hizo hace 6 horas y 51 minutos, a las 17:00 UTC
Pronóstico válido del 31 a las 18 UTC al 01 a las 03 UTC
Viento 10 kt del este-noreste
Visibilidad 10 km o más
Nubes dispersas a una altura de 2000 ft
Cielo nuboso a una altura de 3000 ft
Probabilidad 40% :
Temporalmente
del 31 a las 18 UTC al 01 a las 03 UTC
Visibilidad: 4000 m
Cielo nuboso a una altura de 800 ft
lluvia

TAF: LELN 311700Z 3118/0103 07010KT 9999 SCT020 BKN030 PROB40 TEMPO 3118/0103 4000 RA BKN008

Observaciones y pronósticos meteorológicos de más de 4000 aeropuertos (mensajes METAR y TAF).

Los puntos amarillos y rojos representan las estaciones disponibles.

Ponga el ratón en el punto deseado para ver el nombre de la estación.

Haga clic para ver las observaciones y los pronósticos meteorológicos.

Para cambiar el mapa : haga clic en los botones verdes con una cruz de color negro para hacer un zoom, en el botón verde con un guión para alejar o en las flechas verdes para mapas adyacentes.


METAR-TAF: